Otego, New York
Current Conditions -  °F | °C
As of 2:53 AM on Sunday 23 Nov 2014 (Local Time) from KBGM Reporting Station
Overcast Overcast  
Wind Chill: 31°   Ceiling: 7000
Heat Index: 38°   Visibility: 10mi
Dew Point: 30°   Wind: 10mph
Humidity: 73%   Direction: 210°SSW
Pressure: 30.06"   Gusts: NA
Location:  42.4°N, 75.17°W
Report Text: KBGM 230753Z AUTO 21009KT 10SM SCT038 OVC070 03/M01 A3006 RMK AO2 SLP193 T00331011
Loading
Personal Weather Stations






























Interactive Weather Map New forecast layout! Learn more

10-Day Weather Forecast

Advertisements
Track Severe Weather on mobile